sensor_id;sensor_type;location;lat;lon;timestamp;pressure;altitude;pressure_sealevel;temperature;humidity
51986;BME280;38002;53.296;6.600;2022-11-20T00:04:53;101673.81;;;0.24;89.08
51986;BME280;38002;53.296;6.600;2022-11-20T00:09:53;101670.22;;;0.25;89.44
51986;BME280;38002;53.296;6.600;2022-11-20T00:14:54;101663.06;;;0.25;89.05
51986;BME280;38002;53.296;6.600;2022-11-20T00:19:54;101659.50;;;0.25;89.44
51986;BME280;38002;53.296;6.600;2022-11-20T00:24:55;101654.47;;;0.19;89.06
51986;BME280;38002;53.296;6.600;2022-11-20T00:29:57;101655.31;;;0.19;89.25
51986;BME280;38002;53.296;6.600;2022-11-20T00:34:57;101664.06;;;0.23;89.17
51986;BME280;38002;53.296;6.600;2022-11-20T00:39:58;101658.56;;;0.26;89.25
51986;BME280;38002;53.296;6.600;2022-11-20T00:44:58;101648.66;;;0.28;89.17
51986;BME280;38002;53.296;6.600;2022-11-20T00:49:59;101651.47;;;0.25;88.43
51986;BME280;38002;53.296;6.600;2022-11-20T00:54:59;101659.63;;;0.22;89.03
51986;BME280;38002;53.296;6.600;2022-11-20T00:59:59;101661.38;;;0.23;88.69
51986;BME280;38002;53.296;6.600;2022-11-20T01:05:00;101650.63;;;0.24;88.73
51986;BME280;38002;53.296;6.600;2022-11-20T01:10:00;101642.81;;;0.20;88.67
51986;BME280;38002;53.296;6.600;2022-11-20T01:15:00;101638.56;;;0.16;89.19
51986;BME280;38002;53.296;6.600;2022-11-20T01:20:01;101635.97;;;0.14;88.64
51986;BME280;38002;53.296;6.600;2022-11-20T01:25:01;101626.31;;;0.12;88.50
51986;BME280;38002;53.296;6.600;2022-11-20T01:30:02;101623.63;;;0.12;88.79
51986;BME280;38002;53.296;6.600;2022-11-20T01:35:03;101627.81;;;0.17;88.40
51986;BME280;38002;53.296;6.600;2022-11-20T01:40:03;101618.69;;;0.21;89.43
51986;BME280;38002;53.296;6.600;2022-11-20T01:51:03;101605.00;;;0.27;89.04
51986;BME280;38002;53.296;6.600;2022-11-20T01:56:08;101602.09;;;0.32;88.96
51986;BME280;38002;53.296;6.600;2022-11-20T02:01:10;101605.56;;;0.34;89.32
51986;BME280;38002;53.296;6.600;2022-11-20T02:06:16;101594.75;;;0.35;88.76
51986;BME280;38002;53.296;6.600;2022-11-20T02:11:19;101602.72;;;0.37;88.83
51986;BME280;38002;53.296;6.600;2022-11-20T02:16:23;101594.53;;;0.40;89.47
51986;BME280;38002;53.296;6.600;2022-11-20T02:22:36;101598.69;;;0.45;89.27
51986;BME280;38002;53.296;6.600;2022-11-20T02:27:07;101587.94;;;0.47;89.55
51986;BME280;38002;53.296;6.600;2022-11-20T02:32:24;101576.59;;;0.42;89.24
51986;BME280;38002;53.296;6.600;2022-11-20T02:37:32;101581.06;;;0.41;88.75
51986;BME280;38002;53.296;6.600;2022-11-20T02:42:35;101569.34;;;0.44;89.17
51986;BME280;38002;53.296;6.600;2022-11-20T02:47:36;101571.25;;;0.42;89.15
51986;BME280;38002;53.296;6.600;2022-11-20T02:52:36;101555.50;;;0.36;89.10
51986;BME280;38002;53.296;6.600;2022-11-20T02:57:37;101548.28;;;0.38;89.25
51986;BME280;38002;53.296;6.600;2022-11-20T03:02:37;101557.31;;;0.35;89.29
51986;BME280;38002;53.296;6.600;2022-11-20T03:07:38;101558.41;;;0.31;88.53
51986;BME280;38002;53.296;6.600;2022-11-20T03:12:38;101541.84;;;0.25;89.15
51986;BME280;38002;53.296;6.600;2022-11-20T03:17:38;101541.03;;;0.23;88.72
51986;BME280;38002;53.296;6.600;2022-11-20T03:22:39;101541.97;;;0.22;89.01
51986;BME280;38002;53.296;6.600;2022-11-20T03:27:39;101533.00;;;0.23;88.76
51986;BME280;38002;53.296;6.600;2022-11-20T03:32:40;101537.25;;;0.27;89.15
51986;BME280;38002;53.296;6.600;2022-11-20T03:37:40;101526.31;;;0.31;88.48
51986;BME280;38002;53.296;6.600;2022-11-20T03:42:41;101514.63;;;0.34;88.58
51986;BME280;38002;53.296;6.600;2022-11-20T03:47:50;101512.88;;;0.33;88.50
51986;BME280;38002;53.296;6.600;2022-11-20T03:52:50;101506.41;;;0.37;88.54
51986;BME280;38002;53.296;6.600;2022-11-20T03:57:51;101503.69;;;0.38;87.97
51986;BME280;38002;53.296;6.600;2022-11-20T04:02:51;101494.59;;;0.41;88.67
51986;BME280;38002;53.296;6.600;2022-11-20T04:07:51;101496.16;;;0.45;87.99
51986;BME280;38002;53.296;6.600;2022-11-20T04:12:52;101495.13;;;0.47;88.19
51986;BME280;38002;53.296;6.600;2022-11-20T04:17:53;101496.63;;;0.53;87.94
51986;BME280;38002;53.296;6.600;2022-11-20T04:22:54;101493.88;;;0.55;88.10
51986;BME280;38002;53.296;6.600;2022-11-20T04:27:54;101485.66;;;0.58;88.22
51986;BME280;38002;53.296;6.600;2022-11-20T04:32:55;101473.09;;;0.60;88.04
51986;BME280;38002;53.296;6.600;2022-11-20T04:37:55;101461.75;;;0.55;87.61
51986;BME280;38002;53.296;6.600;2022-11-20T04:42:56;101468.66;;;0.59;87.94
51986;BME280;38002;53.296;6.600;2022-11-20T04:47:56;101466.00;;;0.59;87.82
51986;BME280;38002;53.296;6.600;2022-11-20T04:52:57;101462.44;;;0.58;88.75
51986;BME280;38002;53.296;6.600;2022-11-20T04:57:57;101458.66;;;0.62;88.67
51986;BME280;38002;53.296;6.600;2022-11-20T05:02:58;101445.28;;;0.62;88.56
51986;BME280;38002;53.296;6.600;2022-11-20T05:07:59;101441.66;;;0.63;87.98
51986;BME280;38002;53.296;6.600;2022-11-20T05:12:59;101445.53;;;0.58;87.61
51986;BME280;38002;53.296;6.600;2022-11-20T05:18:00;101442.34;;;0.51;87.66
51986;BME280;38002;53.296;6.600;2022-11-20T05:23:00;101444.28;;;0.47;87.59
51986;BME280;38002;53.296;6.600;2022-11-20T05:28:01;101429.38;;;0.43;87.59
51986;BME280;38002;53.296;6.600;2022-11-20T05:33:01;101417.09;;;0.39;88.08
51986;BME280;38002;53.296;6.600;2022-11-20T05:38:02;101414.59;;;0.36;87.41
51986;BME280;38002;53.296;6.600;2022-11-20T05:43:02;101417.97;;;0.40;88.21
51986;BME280;38002;53.296;6.600;2022-11-20T05:48:03;101411.63;;;0.42;87.72
51986;BME280;38002;53.296;6.600;2022-11-20T05:53:03;101410.56;;;0.45;88.09
51986;BME280;38002;53.296;6.600;2022-11-20T05:58:04;101414.88;;;0.47;87.33
51986;BME280;38002;53.296;6.600;2022-11-20T06:03:04;101406.59;;;0.52;88.13
51986;BME280;38002;53.296;6.600;2022-11-20T06:08:04;101408.31;;;0.53;87.77
51986;BME280;38002;53.296;6.600;2022-11-20T06:13:05;101419.91;;;0.54;87.59
51986;BME280;38002;53.296;6.600;2022-11-20T06:18:05;101409.00;;;0.57;87.79
51986;BME280;38002;53.296;6.600;2022-11-20T06:23:06;101412.47;;;0.59;87.94
51986;BME280;38002;53.296;6.600;2022-11-20T06:28:06;101412.47;;;0.59;87.72
51986;BME280;38002;53.296;6.600;2022-11-20T06:33:07;101409.72;;;0.60;87.99
51986;BME280;38002;53.296;6.600;2022-11-20T06:38:07;101407.13;;;0.59;87.53
51986;BME280;38002;53.296;6.600;2022-11-20T06:43:11;101412.47;;;0.59;88.39
51986;BME280;38002;53.296;6.600;2022-11-20T06:48:11;101409.72;;;0.60;88.08
51986;BME280;38002;53.296;6.600;2022-11-20T06:53:11;101414.09;;;0.61;87.42
51986;BME280;38002;53.296;6.600;2022-11-20T06:58:13;101412.22;;;0.63;87.63
51986;BME280;38002;53.296;6.600;2022-11-20T07:03:14;101411.09;;;0.67;87.84
51986;BME280;38002;53.296;6.600;2022-11-20T07:08:15;101411.09;;;0.67;88.04
51986;BME280;38002;53.296;6.600;2022-11-20T07:13:15;101404.72;;;0.70;88.20
51986;BME280;38002;53.296;6.600;2022-11-20T07:18:15;101398.66;;;0.66;87.87
51986;BME280;38002;53.296;6.600;2022-11-20T07:23:16;101407.50;;;0.68;88.15
51986;BME280;38002;53.296;6.600;2022-11-20T07:28:16;101418.00;;;0.71;88.81
51986;BME280;38002;53.296;6.600;2022-11-20T07:33:17;101417.69;;;0.77;88.35
51986;BME280;38002;53.296;6.600;2022-11-20T07:38:17;101413.97;;;0.80;89.03
51986;BME280;38002;53.296;6.600;2022-11-20T07:43:17;101419.91;;;0.85;88.77
51986;BME280;38002;53.296;6.600;2022-11-20T07:48:18;101427.69;;;0.89;88.38
51986;BME280;38002;53.296;6.600;2022-11-20T07:53:18;101424.84;;;0.93;88.54
51986;BME280;38002;53.296;6.600;2022-11-20T07:58:21;101428.13;;;0.98;89.25
51986;BME280;38002;53.296;6.600;2022-11-20T08:03:22;101431.47;;;1.01;89.34
51986;BME280;38002;53.296;6.600;2022-11-20T08:08:22;101434.94;;;1.03;88.95
51986;BME280;38002;53.296;6.600;2022-11-20T08:13:23;101432.84;;;1.08;88.49
51986;BME280;38002;53.296;6.600;2022-11-20T08:18:41;101426.28;;;1.14;89.08
51986;BME280;38002;53.296;6.600;2022-11-20T08:23:42;101419.72;;;1.19;88.94
51986;BME280;38002;53.296;6.600;2022-11-20T08:28:42;101427.50;;;1.24;88.88
51986;BME280;38002;53.296;6.600;2022-11-20T08:33:44;101420.06;;;1.29;88.91
51986;BME280;38002;53.296;6.600;2022-11-20T08:38:53;101427.81;;;1.33;88.91
51986;BME280;38002;53.296;6.600;2022-11-20T08:43:58;101424.88;;;1.38;89.51
51986;BME280;38002;53.296;6.600;2022-11-20T08:48:59;101425.56;;;1.42;88.32
51986;BME280;38002;53.296;6.600;2022-11-20T08:54:00;101415.69;;;1.42;88.90
51986;BME280;38002;53.296;6.600;2022-11-20T08:59:00;101411.56;;;1.36;88.36
51986;BME280;38002;53.296;6.600;2022-11-20T09:04:01;101406.47;;;1.32;89.06
51986;BME280;38002;53.296;6.600;2022-11-20T09:09:01;101403.97;;;1.29;89.13
51986;BME280;38002;53.296;6.600;2022-11-20T09:14:02;101393.25;;;1.29;89.25
51986;BME280;38002;53.296;6.600;2022-11-20T09:19:03;101395.75;;;1.32;88.88
51986;BME280;38002;53.296;6.600;2022-11-20T09:24:04;101392.03;;;1.34;89.31
51986;BME280;38002;53.296;6.600;2022-11-20T09:29:05;101393.41;;;1.42;89.90
51986;BME280;38002;53.296;6.600;2022-11-20T09:34:06;101385.25;;;1.43;89.19
51986;BME280;38002;53.296;6.600;2022-11-20T09:39:06;101391.00;;;1.51;89.32
51986;BME280;38002;53.296;6.600;2022-11-20T09:44:28;101384.16;;;1.61;88.52
51986;BME280;38002;53.296;6.600;2022-11-20T09:54:49;101364.84;;;1.70;88.58
51986;BME280;38002;53.296;6.600;2022-11-20T10:00:00;101363.41;;;1.79;87.75
51986;BME280;38002;53.296;6.600;2022-11-20T10:05:18;101374.72;;;1.84;87.53
51986;BME280;38002;53.296;6.600;2022-11-20T10:10:28;101361.72;;;1.92;88.15
51986;BME280;38002;53.296;6.600;2022-11-20T10:15:34;101357.88;;;1.96;86.92
51986;BME280;38002;53.296;6.600;2022-11-20T10:21:07;101352.03;;;2.04;85.73
51986;BME280;38002;53.296;6.600;2022-11-20T10:27:15;101342.75;;;2.09;85.41
51986;BME280;38002;53.296;6.600;2022-11-20T10:31:44;101335.66;;;2.08;85.87
51986;BME280;38002;53.296;6.600;2022-11-20T10:36:56;101324.06;;;2.08;85.01
51986;BME280;38002;53.296;6.600;2022-11-20T10:41:59;101326.44;;;2.12;86.08
51986;BME280;38002;53.296;6.600;2022-11-20T10:47:00;101315.13;;;2.21;86.49
51986;BME280;38002;53.296;6.600;2022-11-20T11:02:35;101299.53;;;2.55;83.31
51986;BME280;38002;53.296;6.600;2022-11-20T11:07:39;101291.19;;;2.59;82.86
51986;BME280;38002;53.296;6.600;2022-11-20T11:12:44;101287.25;;;2.65;82.95
51986;BME280;38002;53.296;6.600;2022-11-20T11:17:47;101274.28;;;2.71;84.42
51986;BME280;38002;53.296;6.600;2022-11-20T11:27:51;101265.81;;;2.78;83.06
51986;BME280;38002;53.296;6.600;2022-11-20T11:33:06;101276.22;;;2.69;81.50
51986;BME280;38002;53.296;6.600;2022-11-20T11:43:33;101271.56;;;2.59;84.11
51986;BME280;38002;53.296;6.600;2022-11-20T11:48:57;101267.75;;;2.76;84.17
51986;BME280;38002;53.296;6.600;2022-11-20T11:53:58;101263.16;;;2.90;82.88
51986;BME280;38002;53.296;6.600;2022-11-20T11:59:03;101243.97;;;2.96;84.15
51986;BME280;38002;53.296;6.600;2022-11-20T12:04:36;101253.88;;;3.08;84.65
51986;BME280;38002;53.296;6.600;2022-11-20T12:09:46;101241.41;;;3.20;84.35
51986;BME280;38002;53.296;6.600;2022-11-20T12:14:49;101234.75;;;3.26;83.54
51986;BME280;38002;53.296;6.600;2022-11-20T12:19:52;101227.00;;;3.21;83.52
51986;BME280;38002;53.296;6.600;2022-11-20T12:30:17;101225.50;;;3.30;84.37
51986;BME280;38002;53.296;6.600;2022-11-20T12:46:42;101219.81;;;3.59;84.33
51986;BME280;38002;53.296;6.600;2022-11-20T12:57:32;101211.41;;;3.51;79.78
51986;BME280;38002;53.296;6.600;2022-11-20T13:07:43;101197.66;;;3.43;80.91
51986;BME280;38002;53.296;6.600;2022-11-20T13:12:48;101182.50;;;3.42;82.17
51986;BME280;38002;53.296;6.600;2022-11-20T13:17:59;101170.56;;;3.46;82.00
51986;BME280;38002;53.296;6.600;2022-11-20T13:23:00;101166.69;;;3.50;82.05
51986;BME280;38002;53.296;6.600;2022-11-20T13:28:04;101151.97;;;3.43;79.55
51986;BME280;38002;53.296;6.600;2022-11-20T13:38:28;101139.25;;;3.45;80.56
51986;BME280;38002;53.296;6.600;2022-11-20T13:43:41;101146.38;;;3.46;81.92
51986;BME280;38002;53.296;6.600;2022-11-20T13:48:45;101129.59;;;3.43;79.55
51986;BME280;38002;53.296;6.600;2022-11-20T14:04:49;101106.41;;;3.29;81.38
51986;BME280;38002;53.296;6.600;2022-11-20T14:09:55;101102.00;;;3.28;82.05
51986;BME280;38002;53.296;6.600;2022-11-20T14:14:56;101105.78;;;3.26;81.55
51986;BME280;38002;53.296;6.600;2022-11-20T14:20:00;101088.78;;;3.25;81.45
51986;BME280;38002;53.296;6.600;2022-11-20T14:30:24;101085.38;;;3.23;82.02
51986;BME280;38002;53.296;6.600;2022-11-20T14:35:27;101071.16;;;3.21;82.79
51986;BME280;38002;53.296;6.600;2022-11-20T14:40:33;101062.38;;;3.19;82.58
51986;BME280;38002;53.296;6.600;2022-11-20T14:45:37;101055.47;;;3.15;82.05
51986;BME280;38002;53.296;6.600;2022-11-20T14:50:39;101048.72;;;3.09;83.02
51986;BME280;38002;53.296;6.600;2022-11-20T14:55:40;101049.91;;;3.05;83.19
51986;BME280;38002;53.296;6.600;2022-11-20T15:00:41;101044.97;;;2.99;82.95
51986;BME280;38002;53.296;6.600;2022-11-20T15:05:47;101039.06;;;2.94;83.03
51986;BME280;38002;53.296;6.600;2022-11-20T15:10:50;101035.84;;;2.89;83.15
51986;BME280;38002;53.296;6.600;2022-11-20T15:15:51;101029.28;;;2.81;81.32
51986;BME280;38002;53.296;6.600;2022-11-20T15:20:54;101034.91;;;2.78;82.95
51986;BME280;38002;53.296;6.600;2022-11-20T15:25:55;101042.53;;;2.71;83.61
51986;BME280;38002;53.296;6.600;2022-11-20T15:30:56;101029.53;;;2.65;83.47
51986;BME280;38002;53.296;6.600;2022-11-20T15:35:56;101019.25;;;2.59;83.94
51986;BME280;38002;53.296;6.600;2022-11-20T15:40:57;101003.88;;;2.48;83.22
51986;BME280;38002;53.296;6.600;2022-11-20T15:56:12;100995.91;;;2.34;84.39
51986;BME280;38002;53.296;6.600;2022-11-20T16:01:17;100991.72;;;2.30;84.52
51986;BME280;38002;53.296;6.600;2022-11-20T16:06:18;100970.50;;;2.27;83.49
51986;BME280;38002;53.296;6.600;2022-11-20T16:11:19;100971.75;;;2.21;84.14
51986;BME280;38002;53.296;6.600;2022-11-20T16:16:26;100980.13;;;2.17;83.92
51986;BME280;38002;53.296;6.600;2022-11-20T16:21:29;100969.06;;;2.09;84.65
51986;BME280;38002;53.296;6.600;2022-11-20T16:26:33;100980.75;;;2.08;84.96
51986;BME280;38002;53.296;6.600;2022-11-20T16:31:34;100966.84;;;2.03;84.40
51986;BME280;38002;53.296;6.600;2022-11-20T16:36:34;100983.75;;;2.03;84.26
51986;BME280;38002;53.296;6.600;2022-11-20T16:41:35;100976.03;;;1.99;84.06
51986;BME280;38002;53.296;6.600;2022-11-20T16:46:37;100974.31;;;1.98;84.69
51986;BME280;38002;53.296;6.600;2022-11-20T16:51:38;100974.50;;;1.95;84.87
51986;BME280;38002;53.296;6.600;2022-11-20T16:56:38;100972.03;;;1.92;85.22
51986;BME280;38002;53.296;6.600;2022-11-20T17:01:39;100954.22;;;1.91;84.78
51986;BME280;38002;53.296;6.600;2022-11-20T17:06:42;100951.00;;;1.86;85.00
51986;BME280;38002;53.296;6.600;2022-11-20T17:11:47;100936.88;;;1.83;84.44
51986;BME280;38002;53.296;6.600;2022-11-20T17:16:48;100939.00;;;1.78;84.27
51986;BME280;38002;53.296;6.600;2022-11-20T17:21:48;100935.88;;;1.72;84.07
51986;BME280;38002;53.296;6.600;2022-11-20T17:26:49;100945.75;;;1.71;84.57
51986;BME280;38002;53.296;6.600;2022-11-20T17:31:50;100930.53;;;1.72;84.73
51986;BME280;38002;53.296;6.600;2022-11-20T17:36:50;100928.72;;;1.72;84.40
51986;BME280;38002;53.296;6.600;2022-11-20T17:41:51;100924.31;;;1.71;84.92
51986;BME280;38002;53.296;6.600;2022-11-20T17:47:10;100918.16;;;1.69;85.35
51986;BME280;38002;53.296;6.600;2022-11-20T17:52:11;100907.44;;;1.69;85.02
51986;BME280;38002;53.296;6.600;2022-11-20T17:57:11;100893.97;;;1.71;84.79
51986;BME280;38002;53.296;6.600;2022-11-20T18:02:30;100887.50;;;1.73;84.90
51986;BME280;38002;53.296;6.600;2022-11-20T18:07:31;100879.59;;;1.72;84.74
51986;BME280;38002;53.296;6.600;2022-11-20T18:12:31;100885.16;;;1.69;85.39
51986;BME280;38002;53.296;6.600;2022-11-20T18:17:32;100877.22;;;1.67;84.22
51986;BME280;38002;53.296;6.600;2022-11-20T18:22:32;100889.88;;;1.65;84.45
51986;BME280;38002;53.296;6.600;2022-11-20T18:27:32;100890.94;;;1.63;84.69
51986;BME280;38002;53.296;6.600;2022-11-20T18:32:33;100895.44;;;1.62;84.67
51986;BME280;38002;53.296;6.600;2022-11-20T18:37:35;100884.63;;;1.64;85.00
51986;BME280;38002;53.296;6.600;2022-11-20T18:42:35;100873.91;;;1.64;85.41
51986;BME280;38002;53.296;6.600;2022-11-20T18:47:55;100878.41;;;1.63;85.30
51986;BME280;38002;53.296;6.600;2022-11-20T18:52:55;100872.50;;;1.58;84.68
51986;BME280;38002;53.296;6.600;2022-11-20T18:57:55;100859.31;;;1.55;85.46
51986;BME280;38002;53.296;6.600;2022-11-20T19:02:56;100860.81;;;1.59;85.70
51986;BME280;38002;53.296;6.600;2022-11-20T19:07:57;100865.41;;;1.57;84.90
51986;BME280;38002;53.296;6.600;2022-11-20T19:12:57;100870.78;;;1.57;85.77
51986;BME280;38002;53.296;6.600;2022-11-20T19:17:58;100858.47;;;1.55;85.66
51986;BME280;38002;53.296;6.600;2022-11-20T19:23:00;100863.03;;;1.53;85.87
51986;BME280;38002;53.296;6.600;2022-11-20T19:28:00;100857.69;;;1.53;85.72
51986;BME280;38002;53.296;6.600;2022-11-20T19:33:01;100870.13;;;1.54;85.39
51986;BME280;38002;53.296;6.600;2022-11-20T19:38:01;100869.19;;;1.55;85.72
51986;BME280;38002;53.296;6.600;2022-11-20T19:43:02;100865.63;;;1.54;85.18
51986;BME280;38002;53.296;6.600;2022-11-20T19:48:03;100867.34;;;1.55;85.72
51986;BME280;38002;53.296;6.600;2022-11-20T19:53:03;100873.53;;;1.56;85.94
51986;BME280;38002;53.296;6.600;2022-11-20T19:58:04;100883.31;;;1.57;86.11
51986;BME280;38002;53.296;6.600;2022-11-20T20:03:04;100881.50;;;1.57;85.39
51986;BME280;38002;53.296;6.600;2022-11-20T20:08:05;100877.09;;;1.56;86.29
51986;BME280;38002;53.296;6.600;2022-11-20T20:13:05;100885.34;;;1.53;86.04
51986;BME280;38002;53.296;6.600;2022-11-20T20:18:06;100886.13;;;1.55;85.30
51986;BME280;38002;53.296;6.600;2022-11-20T20:23:07;100881.72;;;1.54;85.17
51986;BME280;38002;53.296;6.600;2022-11-20T20:28:07;100879.03;;;1.54;85.42
51986;BME280;38002;53.296;6.600;2022-11-20T20:33:08;100868.41;;;1.53;85.74
51986;BME280;38002;53.296;6.600;2022-11-20T20:38:08;100871.00;;;1.54;86.10
51986;BME280;38002;53.296;6.600;2022-11-20T20:43:09;100867.66;;;1.51;85.22
51986;BME280;38002;53.296;6.600;2022-11-20T20:48:09;100867.53;;;1.52;86.08
51986;BME280;38002;53.296;6.600;2022-11-20T20:53:10;100872.16;;;1.50;86.13
51986;BME280;38002;53.296;6.600;2022-11-20T20:58:10;100859.72;;;1.49;86.13
51986;BME280;38002;53.296;6.600;2022-11-20T21:03:10;100865.81;;;1.51;85.53
51986;BME280;38002;53.296;6.600;2022-11-20T21:08:11;100863.28;;;1.50;85.99
51986;BME280;38002;53.296;6.600;2022-11-20T21:13:22;100876.53;;;1.51;86.42
51986;BME280;38002;53.296;6.600;2022-11-20T21:18:22;100861.53;;;1.49;85.62
51986;BME280;38002;53.296;6.600;2022-11-20T21:23:23;100859.50;;;1.52;86.58
51986;BME280;38002;53.296;6.600;2022-11-20T21:28:24;100859.50;;;1.52;86.39
51986;BME280;38002;53.296;6.600;2022-11-20T21:33:24;100851.47;;;1.52;85.90
51986;BME280;38002;53.296;6.600;2022-11-20T21:38:25;100840.75;;;1.52;85.71
51986;BME280;38002;53.296;6.600;2022-11-20T21:43:25;100849.09;;;1.48;86.35
51986;BME280;38002;53.296;6.600;2022-11-20T21:48:30;100849.31;;;1.45;86.24
51986;BME280;38002;53.296;6.600;2022-11-20T21:53:31;100863.78;;;1.42;86.22
51986;BME280;38002;53.296;6.600;2022-11-20T21:58:33;100862.81;;;1.43;86.44
51986;BME280;38002;53.296;6.600;2022-11-20T22:03:33;100867.22;;;1.44;86.51
51986;BME280;38002;53.296;6.600;2022-11-20T22:08:35;100865.50;;;1.43;85.94
51986;BME280;38002;53.296;6.600;2022-11-20T22:13:36;100864.75;;;1.41;86.54
51986;BME280;38002;53.296;6.600;2022-11-20T22:18:56;100865.50;;;1.43;86.06
51986;BME280;38002;53.296;6.600;2022-11-20T22:23:58;100880.69;;;1.43;86.32
51986;BME280;38002;53.296;6.600;2022-11-20T22:28:58;100875.69;;;1.38;85.96
51986;BME280;38002;53.296;6.600;2022-11-20T22:34:01;100874.69;;;1.39;86.03
51986;BME280;38002;53.296;6.600;2022-11-20T22:39:02;100886.50;;;1.36;86.01
51986;BME280;38002;53.296;6.600;2022-11-20T22:44:06;100889.25;;;1.35;86.15
51986;BME280;38002;53.296;6.600;2022-11-20T22:49:07;100890.34;;;1.32;86.04
51986;BME280;38002;53.296;6.600;2022-11-20T22:54:10;100887.88;;;1.29;86.02
51986;BME280;38002;53.296;6.600;2022-11-20T22:59:10;100889.00;;;1.25;86.82
51986;BME280;38002;53.296;6.600;2022-11-20T23:04:11;100876.47;;;1.26;86.93
51986;BME280;38002;53.296;6.600;2022-11-20T23:09:12;100879.94;;;1.28;86.76
51986;BME280;38002;53.296;6.600;2022-11-20T23:14:14;100879.16;;;1.26;86.83
51986;BME280;38002;53.296;6.600;2022-11-20T23:19:14;100889.78;;;1.27;86.90
51986;BME280;38002;53.296;6.600;2022-11-20T23:24:15;100880.03;;;1.26;86.04
51986;BME280;38002;53.296;6.600;2022-11-20T23:29:15;100878.28;;;1.25;86.21
51986;BME280;38002;53.296;6.600;2022-11-20T23:34:16;100883.78;;;1.24;86.24
51986;BME280;38002;53.296;6.600;2022-11-20T23:39:16;100886.63;;;1.21;86.39
51986;BME280;38002;53.296;6.600;2022-11-20T23:44:17;100894.66;;;1.21;87.01
51986;BME280;38002;53.296;6.600;2022-11-20T23:49:17;100899.06;;;1.22;86.91
51986;BME280;38002;53.296;6.600;2022-11-20T23:54:18;100896.41;;;1.22;86.37
51986;BME280;38002;53.296;6.600;2022-11-20T23:59:18;100905.38;;;1.21;86.66
